sensor_id;sensor_type;location;lat;lon;timestamp;P1;durP1;ratioP1;P2;durP2;ratioP2
49948;SDS011;35840;45.982;8.890;2022-07-23T00:00:09;9.75;;;7.40;;
49948;SDS011;35840;45.982;8.890;2022-07-23T00:02:36;12.85;;;7.40;;
49948;SDS011;35840;45.982;8.890;2022-07-23T00:05:03;9.63;;;7.50;;
49948;SDS011;35840;45.982;8.890;2022-07-23T00:07:30;11.98;;;8.02;;
49948;SDS011;35840;45.982;8.890;2022-07-23T00:09:57;10.00;;;7.50;;
49948;SDS011;35840;45.982;8.890;2022-07-23T00:12:23;10.07;;;8.07;;
49948;SDS011;35840;45.982;8.890;2022-07-23T00:14:50;7.88;;;7.18;;
49948;SDS011;35840;45.982;8.890;2022-07-23T00:17:17;8.30;;;7.50;;
49948;SDS011;35840;45.982;8.890;2022-07-23T00:19:44;9.02;;;7.40;;
49948;SDS011;35840;45.982;8.890;2022-07-23T00:22:10;9.45;;;7.57;;
49948;SDS011;35840;45.982;8.890;2022-07-23T00:24:37;9.55;;;7.82;;
49948;SDS011;35840;45.982;8.890;2022-07-23T00:27:04;8.98;;;8.18;;
49948;SDS011;35840;45.982;8.890;2022-07-23T00:29:30;13.13;;;7.85;;
49948;SDS011;35840;45.982;8.890;2022-07-23T00:31:57;11.43;;;8.25;;
49948;SDS011;35840;45.982;8.890;2022-07-23T00:34:24;9.60;;;6.80;;
49948;SDS011;35840;45.982;8.890;2022-07-23T00:36:51;12.98;;;8.23;;
49948;SDS011;35840;45.982;8.890;2022-07-23T00:39:20;16.20;;;7.55;;
49948;SDS011;35840;45.982;8.890;2022-07-23T00:41:50;15.32;;;6.03;;
49948;SDS011;35840;45.982;8.890;2022-07-23T00:44:21;7.78;;;5.30;;
49948;SDS011;35840;45.982;8.890;2022-07-23T00:46:53;11.05;;;4.72;;
49948;SDS011;35840;45.982;8.890;2022-07-23T00:49:25;14.40;;;5.57;;
49948;SDS011;35840;45.982;8.890;2022-07-23T00:51:55;8.82;;;4.32;;
49948;SDS011;35840;45.982;8.890;2022-07-23T00:54:23;10.65;;;5.43;;
49948;SDS011;35840;45.982;8.890;2022-07-23T00:56:52;12.00;;;5.65;;
49948;SDS011;35840;45.982;8.890;2022-07-23T00:59:19;10.35;;;5.50;;
49948;SDS011;35840;45.982;8.890;2022-07-23T01:01:46;6.40;;;3.38;;
49948;SDS011;35840;45.982;8.890;2022-07-23T01:04:15;9.15;;;4.30;;
49948;SDS011;35840;45.982;8.890;2022-07-23T01:06:43;12.05;;;3.92;;
49948;SDS011;35840;45.982;8.890;2022-07-23T01:09:11;10.23;;;5.30;;
49948;SDS011;35840;45.982;8.890;2022-07-23T01:11:38;11.75;;;4.40;;
49948;SDS011;35840;45.982;8.890;2022-07-23T01:14:13;9.00;;;4.07;;
49948;SDS011;35840;45.982;8.890;2022-07-23T01:16:42;10.02;;;3.97;;
49948;SDS011;35840;45.982;8.890;2022-07-23T01:19:10;6.82;;;3.97;;
49948;SDS011;35840;45.982;8.890;2022-07-23T01:21:41;5.30;;;3.92;;
49948;SDS011;35840;45.982;8.890;2022-07-23T01:24:10;9.02;;;3.83;;
49948;SDS011;35840;45.982;8.890;2022-07-23T01:26:44;4.70;;;3.13;;
49948;SDS011;35840;45.982;8.890;2022-07-23T01:29:11;6.82;;;3.20;;
49948;SDS011;35840;45.982;8.890;2022-07-23T01:31:39;8.65;;;3.75;;
49948;SDS011;35840;45.982;8.890;2022-07-23T01:34:07;6.95;;;3.85;;
49948;SDS011;35840;45.982;8.890;2022-07-23T01:36:35;6.55;;;3.15;;
49948;SDS011;35840;45.982;8.890;2022-07-23T01:39:02;6.32;;;3.60;;
49948;SDS011;35840;45.982;8.890;2022-07-23T01:41:30;5.43;;;3.30;;
49948;SDS011;35840;45.982;8.890;2022-07-23T01:43:58;6.70;;;3.35;;
49948;SDS011;35840;45.982;8.890;2022-07-23T01:46:25;4.80;;;2.78;;
49948;SDS011;35840;45.982;8.890;2022-07-23T01:48:52;6.55;;;3.20;;
49948;SDS011;35840;45.982;8.890;2022-07-23T01:51:39;6.68;;;4.07;;
49948;SDS011;35840;45.982;8.890;2022-07-23T01:54:30;7.53;;;3.92;;
49948;SDS011;35840;45.982;8.890;2022-07-23T01:57:00;6.80;;;4.25;;
49948;SDS011;35840;45.982;8.890;2022-07-23T01:59:28;7.40;;;3.08;;
49948;SDS011;35840;45.982;8.890;2022-07-23T02:01:54;6.32;;;3.22;;
49948;SDS011;35840;45.982;8.890;2022-07-23T02:04:22;3.97;;;3.10;;
49948;SDS011;35840;45.982;8.890;2022-07-23T02:06:50;6.90;;;3.53;;
49948;SDS011;35840;45.982;8.890;2022-07-23T02:09:18;5.22;;;3.63;;
49948;SDS011;35840;45.982;8.890;2022-07-23T02:11:46;4.63;;;2.72;;
49948;SDS011;35840;45.982;8.890;2022-07-23T02:14:12;7.70;;;3.92;;
49948;SDS011;35840;45.982;8.890;2022-07-23T02:16:39;3.50;;;2.80;;
49948;SDS011;35840;45.982;8.890;2022-07-23T02:19:06;5.05;;;3.00;;
49948;SDS011;35840;45.982;8.890;2022-07-23T02:21:35;6.55;;;3.38;;
49948;SDS011;35840;45.982;8.890;2022-07-23T02:24:03;7.28;;;2.97;;
49948;SDS011;35840;45.982;8.890;2022-07-23T02:26:30;7.70;;;3.13;;
49948;SDS011;35840;45.982;8.890;2022-07-23T02:29:04;5.70;;;2.92;;
49948;SDS011;35840;45.982;8.890;2022-07-23T02:31:31;4.07;;;2.83;;
49948;SDS011;35840;45.982;8.890;2022-07-23T02:33:58;3.92;;;3.10;;
49948;SDS011;35840;45.982;8.890;2022-07-23T02:36:26;4.10;;;3.25;;
49948;SDS011;35840;45.982;8.890;2022-07-23T02:38:54;4.78;;;2.90;;
49948;SDS011;35840;45.982;8.890;2022-07-23T02:41:21;4.30;;;2.65;;
49948;SDS011;35840;45.982;8.890;2022-07-23T02:43:49;5.35;;;3.30;;
49948;SDS011;35840;45.982;8.890;2022-07-23T02:46:16;3.65;;;2.85;;
49948;SDS011;35840;45.982;8.890;2022-07-23T02:48:43;3.33;;;2.90;;
49948;SDS011;35840;45.982;8.890;2022-07-23T02:51:10;4.55;;;3.10;;
49948;SDS011;35840;45.982;8.890;2022-07-23T02:53:46;5.60;;;3.88;;
49948;SDS011;35840;45.982;8.890;2022-07-23T02:56:13;4.63;;;2.75;;
49948;SDS011;35840;45.982;8.890;2022-07-23T02:58:41;3.80;;;2.97;;
49948;SDS011;35840;45.982;8.890;2022-07-23T03:01:07;4.70;;;2.95;;
49948;SDS011;35840;45.982;8.890;2022-07-23T03:03:34;5.25;;;2.92;;
49948;SDS011;35840;45.982;8.890;2022-07-23T03:06:01;5.50;;;3.00;;
49948;SDS011;35840;45.982;8.890;2022-07-23T03:08:27;5.28;;;3.28;;
49948;SDS011;35840;45.982;8.890;2022-07-23T03:10:55;4.80;;;3.03;;
49948;SDS011;35840;45.982;8.890;2022-07-23T03:13:21;11.20;;;2.53;;
49948;SDS011;35840;45.982;8.890;2022-07-23T03:15:48;3.05;;;2.85;;
49948;SDS011;35840;45.982;8.890;2022-07-23T03:18:15;4.43;;;2.83;;
49948;SDS011;35840;45.982;8.890;2022-07-23T03:20:42;3.70;;;3.33;;
49948;SDS011;35840;45.982;8.890;2022-07-23T03:23:09;3.60;;;2.60;;
49948;SDS011;35840;45.982;8.890;2022-07-23T03:25:36;4.60;;;2.92;;
49948;SDS011;35840;45.982;8.890;2022-07-23T03:28:03;4.22;;;3.17;;
49948;SDS011;35840;45.982;8.890;2022-07-23T03:30:30;3.22;;;2.80;;
49948;SDS011;35840;45.982;8.890;2022-07-23T03:32:57;4.28;;;2.95;;
49948;SDS011;35840;45.982;8.890;2022-07-23T03:35:24;4.53;;;3.13;;
49948;SDS011;35840;45.982;8.890;2022-07-23T03:38:11;3.20;;;2.90;;
49948;SDS011;35840;45.982;8.890;2022-07-23T03:40:39;4.30;;;3.45;;
49948;SDS011;35840;45.982;8.890;2022-07-23T03:43:06;4.43;;;3.97;;
49948;SDS011;35840;45.982;8.890;2022-07-23T03:45:33;3.88;;;3.15;;
49948;SDS011;35840;45.982;8.890;2022-07-23T03:47:59;3.92;;;3.38;;
49948;SDS011;35840;45.982;8.890;2022-07-23T03:50:27;4.80;;;3.22;;
49948;SDS011;35840;45.982;8.890;2022-07-23T03:52:55;5.35;;;3.28;;
49948;SDS011;35840;45.982;8.890;2022-07-23T03:55:21;4.15;;;3.75;;
49948;SDS011;35840;45.982;8.890;2022-07-23T03:57:48;8.43;;;4.43;;
49948;SDS011;35840;45.982;8.890;2022-07-23T04:00:15;5.28;;;3.28;;
49948;SDS011;35840;45.982;8.890;2022-07-23T04:02:44;3.05;;;2.75;;
49948;SDS011;35840;45.982;8.890;2022-07-23T04:05:11;3.78;;;3.20;;
49948;SDS011;35840;45.982;8.890;2022-07-23T04:07:40;3.28;;;2.97;;
49948;SDS011;35840;45.982;8.890;2022-07-23T04:10:07;3.92;;;2.92;;
49948;SDS011;35840;45.982;8.890;2022-07-23T04:12:34;4.60;;;2.83;;
49948;SDS011;35840;45.982;8.890;2022-07-23T04:15:01;2.88;;;2.65;;
49948;SDS011;35840;45.982;8.890;2022-07-23T04:17:28;3.67;;;3.00;;
49948;SDS011;35840;45.982;8.890;2022-07-23T04:19:55;3.33;;;2.75;;
49948;SDS011;35840;45.982;8.890;2022-07-23T04:22:24;4.35;;;2.90;;
49948;SDS011;35840;45.982;8.890;2022-07-23T04:24:50;3.65;;;2.88;;
49948;SDS011;35840;45.982;8.890;2022-07-23T04:27:18;5.30;;;2.80;;
49948;SDS011;35840;45.982;8.890;2022-07-23T04:29:45;3.20;;;2.90;;
49948;SDS011;35840;45.982;8.890;2022-07-23T04:32:13;3.10;;;2.80;;
49948;SDS011;35840;45.982;8.890;2022-07-23T04:34:40;3.20;;;2.80;;
49948;SDS011;35840;45.982;8.890;2022-07-23T04:37:07;3.10;;;2.50;;
49948;SDS011;35840;45.982;8.890;2022-07-23T04:39:35;6.88;;;3.40;;
49948;SDS011;35840;45.982;8.890;2022-07-23T04:42:02;4.60;;;2.92;;
49948;SDS011;35840;45.982;8.890;2022-07-23T04:44:30;6.00;;;3.20;;
49948;SDS011;35840;45.982;8.890;2022-07-23T04:46:57;3.95;;;3.53;;
49948;SDS011;35840;45.982;8.890;2022-07-23T04:49:25;4.07;;;3.00;;
49948;SDS011;35840;45.982;8.890;2022-07-23T04:51:51;5.22;;;3.55;;
49948;SDS011;35840;45.982;8.890;2022-07-23T04:54:18;3.95;;;2.97;;
49948;SDS011;35840;45.982;8.890;2022-07-23T04:56:44;3.30;;;2.85;;
49948;SDS011;35840;45.982;8.890;2022-07-23T04:59:11;3.15;;;2.88;;
49948;SDS011;35840;45.982;8.890;2022-07-23T05:01:39;3.08;;;2.55;;
49948;SDS011;35840;45.982;8.890;2022-07-23T05:04:09;3.28;;;2.97;;
49948;SDS011;35840;45.982;8.890;2022-07-23T05:06:37;3.80;;;2.55;;
49948;SDS011;35840;45.982;8.890;2022-07-23T05:09:03;4.60;;;2.92;;
49948;SDS011;35840;45.982;8.890;2022-07-23T05:11:30;6.63;;;3.60;;
49948;SDS011;35840;45.982;8.890;2022-07-23T05:13:57;3.40;;;3.10;;
49948;SDS011;35840;45.982;8.890;2022-07-23T05:16:24;2.90;;;2.70;;
49948;SDS011;35840;45.982;8.890;2022-07-23T05:18:56;7.72;;;3.33;;
49948;SDS011;35840;45.982;8.890;2022-07-23T05:21:23;3.83;;;3.35;;
49948;SDS011;35840;45.982;8.890;2022-07-23T05:23:49;5.22;;;3.35;;
49948;SDS011;35840;45.982;8.890;2022-07-23T05:26:16;5.00;;;3.30;;
49948;SDS011;35840;45.982;8.890;2022-07-23T05:28:43;3.60;;;2.97;;
49948;SDS011;35840;45.982;8.890;2022-07-23T05:31:16;5.25;;;3.17;;
49948;SDS011;35840;45.982;8.890;2022-07-23T05:33:45;3.13;;;2.83;;
49948;SDS011;35840;45.982;8.890;2022-07-23T05:36:12;3.60;;;3.10;;
49948;SDS011;35840;45.982;8.890;2022-07-23T05:38:46;3.03;;;2.75;;
49948;SDS011;35840;45.982;8.890;2022-07-23T05:41:14;3.45;;;3.15;;
49948;SDS011;35840;45.982;8.890;2022-07-23T05:43:40;6.03;;;3.30;;
49948;SDS011;35840;45.982;8.890;2022-07-23T05:46:10;4.47;;;3.42;;
49948;SDS011;35840;45.982;8.890;2022-07-23T05:48:39;4.22;;;3.42;;
49948;SDS011;35840;45.982;8.890;2022-07-23T05:51:21;4.13;;;3.50;;
49948;SDS011;35840;45.982;8.890;2022-07-23T05:53:49;3.13;;;2.83;;
49948;SDS011;35840;45.982;8.890;2022-07-23T05:56:20;3.25;;;2.95;;
49948;SDS011;35840;45.982;8.890;2022-07-23T05:58:47;3.72;;;3.35;;
49948;SDS011;35840;45.982;8.890;2022-07-23T06:01:16;5.25;;;3.30;;
49948;SDS011;35840;45.982;8.890;2022-07-23T06:03:49;4.53;;;2.63;;
49948;SDS011;35840;45.982;8.890;2022-07-23T06:06:16;3.67;;;3.03;;
49948;SDS011;35840;45.982;8.890;2022-07-23T06:08:43;3.22;;;2.92;;
49948;SDS011;35840;45.982;8.890;2022-07-23T06:11:10;3.40;;;3.10;;
49948;SDS011;35840;45.982;8.890;2022-07-23T06:13:37;4.13;;;3.30;;
49948;SDS011;35840;45.982;8.890;2022-07-23T06:16:04;3.58;;;3.28;;
49948;SDS011;35840;45.982;8.890;2022-07-23T06:18:31;5.40;;;3.15;;
49948;SDS011;35840;45.982;8.890;2022-07-23T06:20:57;6.18;;;3.40;;
49948;SDS011;35840;45.982;8.890;2022-07-23T06:23:26;6.65;;;3.22;;
49948;SDS011;35840;45.982;8.890;2022-07-23T06:25:53;4.88;;;3.40;;
49948;SDS011;35840;45.982;8.890;2022-07-23T06:28:19;5.65;;;3.13;;
49948;SDS011;35840;45.982;8.890;2022-07-23T06:30:46;5.82;;;3.03;;
49948;SDS011;35840;45.982;8.890;2022-07-23T06:33:12;3.55;;;3.25;;
49948;SDS011;35840;45.982;8.890;2022-07-23T06:35:39;4.28;;;3.47;;
49948;SDS011;35840;45.982;8.890;2022-07-23T06:38:07;4.68;;;3.38;;
49948;SDS011;35840;45.982;8.890;2022-07-23T06:40:34;4.25;;;3.85;;
49948;SDS011;35840;45.982;8.890;2022-07-23T06:43:02;4.38;;;4.05;;
49948;SDS011;35840;45.982;8.890;2022-07-23T06:45:28;7.95;;;4.85;;
49948;SDS011;35840;45.982;8.890;2022-07-23T06:47:55;6.05;;;5.15;;
49948;SDS011;35840;45.982;8.890;2022-07-23T06:50:22;6.50;;;4.80;;
49948;SDS011;35840;45.982;8.890;2022-07-23T06:52:49;6.95;;;4.80;;
49948;SDS011;35840;45.982;8.890;2022-07-23T06:55:16;17.35;;;4.72;;
49948;SDS011;35840;45.982;8.890;2022-07-23T06:57:44;6.35;;;5.00;;
49948;SDS011;35840;45.982;8.890;2022-07-23T07:00:10;4.55;;;4.07;;
49948;SDS011;35840;45.982;8.890;2022-07-23T07:02:37;5.78;;;4.57;;
49948;SDS011;35840;45.982;8.890;2022-07-23T07:05:04;5.10;;;4.57;;
49948;SDS011;35840;45.982;8.890;2022-07-23T07:07:32;6.68;;;4.97;;
49948;SDS011;35840;45.982;8.890;2022-07-23T07:10:00;4.53;;;4.13;;
49948;SDS011;35840;45.982;8.890;2022-07-23T07:12:28;5.80;;;4.50;;
49948;SDS011;35840;45.982;8.890;2022-07-23T07:14:55;4.80;;;4.22;;
49948;SDS011;35840;45.982;8.890;2022-07-23T07:17:22;4.32;;;3.95;;
49948;SDS011;35840;45.982;8.890;2022-07-23T07:19:49;5.78;;;4.63;;
49948;SDS011;35840;45.982;8.890;2022-07-23T07:22:16;4.95;;;4.50;;
49948;SDS011;35840;45.982;8.890;2022-07-23T07:24:42;4.97;;;4.47;;
49948;SDS011;35840;45.982;8.890;2022-07-23T07:27:09;5.07;;;4.03;;
49948;SDS011;35840;45.982;8.890;2022-07-23T07:29:35;5.03;;;3.90;;
49948;SDS011;35840;45.982;8.890;2022-07-23T07:32:02;6.00;;;4.88;;
49948;SDS011;35840;45.982;8.890;2022-07-23T07:34:29;5.60;;;4.75;;
49948;SDS011;35840;45.982;8.890;2022-07-23T07:36:56;4.75;;;4.25;;
49948;SDS011;35840;45.982;8.890;2022-07-23T07:39:22;6.25;;;4.10;;
49948;SDS011;35840;45.982;8.890;2022-07-23T07:41:49;5.25;;;4.68;;
49948;SDS011;35840;45.982;8.890;2022-07-23T07:44:16;5.28;;;4.25;;
49948;SDS011;35840;45.982;8.890;2022-07-23T07:46:42;8.43;;;4.28;;
49948;SDS011;35840;45.982;8.890;2022-07-23T07:49:09;7.05;;;4.60;;
49948;SDS011;35840;45.982;8.890;2022-07-23T07:51:41;6.18;;;4.55;;
49948;SDS011;35840;45.982;8.890;2022-07-23T07:54:10;7.45;;;4.30;;
49948;SDS011;35840;45.982;8.890;2022-07-23T07:56:38;4.53;;;4.13;;
49948;SDS011;35840;45.982;8.890;2022-07-23T07:59:06;6.13;;;5.10;;
49948;SDS011;35840;45.982;8.890;2022-07-23T08:01:33;6.38;;;4.78;;
49948;SDS011;35840;45.982;8.890;2022-07-23T08:03:59;5.82;;;4.93;;
49948;SDS011;35840;45.982;8.890;2022-07-23T08:06:27;6.45;;;4.65;;
49948;SDS011;35840;45.982;8.890;2022-07-23T08:08:53;8.85;;;5.22;;
49948;SDS011;35840;45.982;8.890;2022-07-23T08:11:20;5.18;;;4.63;;
49948;SDS011;35840;45.982;8.890;2022-07-23T08:13:47;6.75;;;4.68;;
49948;SDS011;35840;45.982;8.890;2022-07-23T08:16:14;8.55;;;5.40;;
49948;SDS011;35840;45.982;8.890;2022-07-23T08:18:41;6.63;;;5.53;;
49948;SDS011;35840;45.982;8.890;2022-07-23T08:21:07;5.75;;;5.00;;
49948;SDS011;35840;45.982;8.890;2022-07-23T08:23:34;5.60;;;4.97;;
49948;SDS011;35840;45.982;8.890;2022-07-23T08:26:01;7.20;;;5.03;;
49948;SDS011;35840;45.982;8.890;2022-07-23T08:28:27;5.30;;;4.85;;
49948;SDS011;35840;45.982;8.890;2022-07-23T08:30:54;7.18;;;4.85;;
49948;SDS011;35840;45.982;8.890;2022-07-23T08:33:21;5.68;;;5.18;;
49948;SDS011;35840;45.982;8.890;2022-07-23T08:36:00;5.70;;;5.10;;
49948;SDS011;35840;45.982;8.890;2022-07-23T08:38:29;5.18;;;4.63;;
49948;SDS011;35840;45.982;8.890;2022-07-23T08:40:57;8.05;;;5.35;;
49948;SDS011;35840;45.982;8.890;2022-07-23T08:43:25;7.03;;;4.72;;
49948;SDS011;35840;45.982;8.890;2022-07-23T08:45:54;5.43;;;4.57;;
49948;SDS011;35840;45.982;8.890;2022-07-23T08:48:24;7.32;;;5.43;;
49948;SDS011;35840;45.982;8.890;2022-07-23T08:50:54;5.55;;;4.78;;
49948;SDS011;35840;45.982;8.890;2022-07-23T08:53:27;5.40;;;4.65;;
49948;SDS011;35840;45.982;8.890;2022-07-23T08:55:56;6.60;;;4.50;;
49948;SDS011;35840;45.982;8.890;2022-07-23T08:58:24;5.00;;;4.60;;
49948;SDS011;35840;45.982;8.890;2022-07-23T09:00:54;7.22;;;5.20;;
49948;SDS011;35840;45.982;8.890;2022-07-23T09:03:35;6.90;;;5.25;;
49948;SDS011;35840;45.982;8.890;2022-07-23T09:06:03;7.00;;;5.43;;
49948;SDS011;35840;45.982;8.890;2022-07-23T09:11:04;7.25;;;5.53;;
49948;SDS011;35840;45.982;8.890;2022-07-23T09:13:36;5.97;;;5.32;;
49948;SDS011;35840;45.982;8.890;2022-07-23T09:18:41;5.70;;;5.03;;
49948;SDS011;35840;45.982;8.890;2022-07-23T09:23:47;7.55;;;5.32;;
49948;SDS011;35840;45.982;8.890;2022-07-23T09:31:20;6.32;;;5.05;;
49948;SDS011;35840;45.982;8.890;2022-07-23T09:33:47;5.50;;;4.90;;
49948;SDS011;35840;45.982;8.890;2022-07-23T09:36:14;7.30;;;4.95;;
49948;SDS011;35840;45.982;8.890;2022-07-23T09:38:47;5.45;;;4.95;;
49948;SDS011;35840;45.982;8.890;2022-07-23T09:41:15;5.53;;;5.03;;
49948;SDS011;35840;45.982;8.890;2022-07-23T09:43:43;6.28;;;5.22;;
49948;SDS011;35840;45.982;8.890;2022-07-23T09:46:20;5.95;;;5.35;;
49948;SDS011;35840;45.982;8.890;2022-07-23T09:48:53;6.63;;;5.60;;
49948;SDS011;35840;45.982;8.890;2022-07-23T09:51:23;6.60;;;5.38;;
49948;SDS011;35840;45.982;8.890;2022-07-23T09:53:59;7.85;;;4.70;;
49948;SDS011;35840;45.982;8.890;2022-07-23T09:56:27;7.70;;;5.22;;
49948;SDS011;35840;45.982;8.890;2022-07-23T09:58:53;5.80;;;5.20;;
49948;SDS011;35840;45.982;8.890;2022-07-23T10:01:38;5.18;;;4.68;;
49948;SDS011;35840;45.982;8.890;2022-07-23T10:04:05;6.25;;;5.63;;
49948;SDS011;35840;45.982;8.890;2022-07-23T10:06:59;5.32;;;4.70;;
49948;SDS011;35840;45.982;8.890;2022-07-23T10:09:48;5.43;;;4.93;;
49948;SDS011;35840;45.982;8.890;2022-07-23T10:15:19;5.38;;;4.97;;
49948;SDS011;35840;45.982;8.890;2022-07-23T10:17:46;8.02;;;5.00;;
49948;SDS011;35840;45.982;8.890;2022-07-23T10:20:14;5.03;;;4.60;;
49948;SDS011;35840;45.982;8.890;2022-07-23T10:22:44;4.88;;;4.47;;
49948;SDS011;35840;45.982;8.890;2022-07-23T10:25:32;5.97;;;4.90;;
49948;SDS011;35840;45.982;8.890;2022-07-23T10:34:41;5.55;;;4.70;;
49948;SDS011;35840;45.982;8.890;2022-07-23T10:37:23;5.20;;;4.80;;
49948;SDS011;35840;45.982;8.890;2022-07-23T10:40:11;5.25;;;4.78;;
49948;SDS011;35840;45.982;8.890;2022-07-23T10:42:45;5.18;;;4.30;;
49948;SDS011;35840;45.982;8.890;2022-07-23T10:47:53;5.80;;;5.13;;
49948;SDS011;35840;45.982;8.890;2022-07-23T10:58:02;6.22;;;5.28;;
49948;SDS011;35840;45.982;8.890;2022-07-23T11:00:33;6.55;;;4.75;;
49948;SDS011;35840;45.982;8.890;2022-07-23T11:03:05;5.07;;;4.57;;
49948;SDS011;35840;45.982;8.890;2022-07-23T11:06:01;7.22;;;5.00;;
49948;SDS011;35840;45.982;8.890;2022-07-23T11:08:28;6.00;;;5.25;;
49948;SDS011;35840;45.982;8.890;2022-07-23T11:11:07;5.30;;;4.45;;
49948;SDS011;35840;45.982;8.890;2022-07-23T11:13:37;7.38;;;4.75;;
49948;SDS011;35840;45.982;8.890;2022-07-23T11:26:46;5.45;;;4.95;;
49948;SDS011;35840;45.982;8.890;2022-07-23T11:34:39;7.63;;;4.82;;
49948;SDS011;35840;45.982;8.890;2022-07-23T11:37:09;10.35;;;5.45;;
49948;SDS011;35840;45.982;8.890;2022-07-23T11:39:37;6.13;;;5.25;;
49948;SDS011;35840;45.982;8.890;2022-07-23T11:42:06;5.72;;;4.80;;
49948;SDS011;35840;45.982;8.890;2022-07-23T11:44:34;5.13;;;4.63;;
49948;SDS011;35840;45.982;8.890;2022-07-23T11:47:03;7.63;;;4.80;;
49948;SDS011;35840;45.982;8.890;2022-07-23T11:49:32;5.03;;;4.63;;
49948;SDS011;35840;45.982;8.890;2022-07-23T11:52:06;5.28;;;4.78;;
49948;SDS011;35840;45.982;8.890;2022-07-23T11:54:35;5.65;;;5.05;;
49948;SDS011;35840;45.982;8.890;2022-07-23T11:57:12;4.93;;;4.40;;
49948;SDS011;35840;45.982;8.890;2022-07-23T11:59:39;6.72;;;5.03;;
49948;SDS011;35840;45.982;8.890;2022-07-23T12:02:06;8.15;;;4.63;;
49948;SDS011;35840;45.982;8.890;2022-07-23T12:04:37;5.10;;;4.32;;
49948;SDS011;35840;45.982;8.890;2022-07-23T12:07:10;5.38;;;4.68;;
49948;SDS011;35840;45.982;8.890;2022-07-23T12:09:49;4.60;;;4.22;;
49948;SDS011;35840;45.982;8.890;2022-07-23T12:12:16;7.22;;;5.55;;
49948;SDS011;35840;45.982;8.890;2022-07-23T12:17:17;5.25;;;4.75;;
49948;SDS011;35840;45.982;8.890;2022-07-23T12:19:44;6.10;;;4.85;;
49948;SDS011;35840;45.982;8.890;2022-07-23T12:22:12;8.30;;;4.85;;
49948;SDS011;35840;45.982;8.890;2022-07-23T12:24:53;4.72;;;4.32;;
49948;SDS011;35840;45.982;8.890;2022-07-23T12:27:25;5.82;;;4.45;;
49948;SDS011;35840;45.982;8.890;2022-07-23T12:29:52;4.57;;;4.15;;
49948;SDS011;35840;45.982;8.890;2022-07-23T12:32:21;5.20;;;4.22;;
49948;SDS011;35840;45.982;8.890;2022-07-23T12:35:05;6.45;;;4.47;;
49948;SDS011;35840;45.982;8.890;2022-07-23T12:37:34;8.65;;;4.25;;
49948;SDS011;35840;45.982;8.890;2022-07-23T12:40:22;4.90;;;4.40;;
49948;SDS011;35840;45.982;8.890;2022-07-23T12:42:59;6.40;;;4.35;;
49948;SDS011;35840;45.982;8.890;2022-07-23T12:48:24;5.78;;;5.28;;
49948;SDS011;35840;45.982;8.890;2022-07-23T12:50:54;5.35;;;4.80;;
49948;SDS011;35840;45.982;8.890;2022-07-23T12:53:24;5.68;;;5.00;;
49948;SDS011;35840;45.982;8.890;2022-07-23T12:56:02;5.20;;;4.28;;
49948;SDS011;35840;45.982;8.890;2022-07-23T12:58:46;5.60;;;4.78;;
49948;SDS011;35840;45.982;8.890;2022-07-23T13:03:56;6.07;;;5.03;;
49948;SDS011;35840;45.982;8.890;2022-07-23T13:06:40;12.10;;;4.75;;
49948;SDS011;35840;45.982;8.890;2022-07-23T13:09:14;4.60;;;4.20;;
49948;SDS011;35840;45.982;8.890;2022-07-23T13:11:43;5.47;;;4.97;;
49948;SDS011;35840;45.982;8.890;2022-07-23T13:14:13;7.40;;;6.15;;
49948;SDS011;35840;45.982;8.890;2022-07-23T13:16:41;5.20;;;4.70;;
49948;SDS011;35840;45.982;8.890;2022-07-23T13:19:09;7.70;;;5.25;;
49948;SDS011;35840;45.982;8.890;2022-07-23T13:21:38;5.25;;;4.75;;
49948;SDS011;35840;45.982;8.890;2022-07-23T13:24:05;6.32;;;5.20;;
49948;SDS011;35840;45.982;8.890;2022-07-23T13:26:35;8.73;;;5.82;;
49948;SDS011;35840;45.982;8.890;2022-07-23T13:29:03;7.68;;;5.47;;
49948;SDS011;35840;45.982;8.890;2022-07-23T13:31:35;8.07;;;6.18;;
49948;SDS011;35840;45.982;8.890;2022-07-23T13:34:04;8.90;;;5.75;;
49948;SDS011;35840;45.982;8.890;2022-07-23T13:36:33;6.43;;;5.80;;
49948;SDS011;35840;45.982;8.890;2022-07-23T13:39:00;6.07;;;5.25;;
49948;SDS011;35840;45.982;8.890;2022-07-23T13:41:28;6.90;;;5.10;;
49948;SDS011;35840;45.982;8.890;2022-07-23T13:43:56;5.10;;;4.70;;
49948;SDS011;35840;45.982;8.890;2022-07-23T13:46:23;5.43;;;4.70;;
49948;SDS011;35840;45.982;8.890;2022-07-23T13:48:50;5.35;;;4.85;;
49948;SDS011;35840;45.982;8.890;2022-07-23T13:51:17;5.72;;;4.90;;
49948;SDS011;35840;45.982;8.890;2022-07-23T13:54:04;6.10;;;5.50;;
49948;SDS011;35840;45.982;8.890;2022-07-23T13:56:34;7.38;;;5.03;;
49948;SDS011;35840;45.982;8.890;2022-07-23T13:59:02;6.78;;;5.88;;
49948;SDS011;35840;45.982;8.890;2022-07-23T14:01:32;6.07;;;5.53;;
49948;SDS011;35840;45.982;8.890;2022-07-23T14:04:18;6.72;;;5.43;;
49948;SDS011;35840;45.982;8.890;2022-07-23T14:06:45;9.20;;;5.47;;
49948;SDS011;35840;45.982;8.890;2022-07-23T14:09:18;7.28;;;6.20;;
49948;SDS011;35840;45.982;8.890;2022-07-23T14:11:45;10.48;;;5.78;;
49948;SDS011;35840;45.982;8.890;2022-07-23T14:14:11;7.47;;;6.78;;
49948;SDS011;35840;45.982;8.890;2022-07-23T14:16:38;7.30;;;5.50;;
49948;SDS011;35840;45.982;8.890;2022-07-23T14:19:05;6.38;;;5.43;;
49948;SDS011;35840;45.982;8.890;2022-07-23T14:21:32;6.72;;;5.47;;
49948;SDS011;35840;45.982;8.890;2022-07-23T14:23:59;11.90;;;5.82;;
49948;SDS011;35840;45.982;8.890;2022-07-23T14:26:25;8.98;;;5.70;;
49948;SDS011;35840;45.982;8.890;2022-07-23T14:28:53;6.28;;;5.68;;
49948;SDS011;35840;45.982;8.890;2022-07-23T14:31:19;8.68;;;5.68;;
49948;SDS011;35840;45.982;8.890;2022-07-23T14:33:47;8.00;;;5.75;;
49948;SDS011;35840;45.982;8.890;2022-07-23T14:36:15;7.60;;;5.97;;
49948;SDS011;35840;45.982;8.890;2022-07-23T14:38:42;7.03;;;5.28;;
49948;SDS011;35840;45.982;8.890;2022-07-23T14:41:08;9.40;;;6.20;;
49948;SDS011;35840;45.982;8.890;2022-07-23T14:43:36;9.20;;;5.90;;
49948;SDS011;35840;45.982;8.890;2022-07-23T14:46:04;7.10;;;5.50;;
49948;SDS011;35840;45.982;8.890;2022-07-23T14:48:31;7.22;;;6.25;;
49948;SDS011;35840;45.982;8.890;2022-07-23T14:50:58;5.82;;;5.32;;
49948;SDS011;35840;45.982;8.890;2022-07-23T14:53:25;10.55;;;5.90;;
49948;SDS011;35840;45.982;8.890;2022-07-23T14:55:52;7.25;;;5.65;;
49948;SDS011;35840;45.982;8.890;2022-07-23T14:58:20;8.93;;;6.28;;
49948;SDS011;35840;45.982;8.890;2022-07-23T15:00:47;8.68;;;6.53;;
49948;SDS011;35840;45.982;8.890;2022-07-23T15:03:14;7.60;;;6.28;;
49948;SDS011;35840;45.982;8.890;2022-07-23T15:05:41;10.10;;;5.88;;
49948;SDS011;35840;45.982;8.890;2022-07-23T15:08:08;8.05;;;6.93;;
49948;SDS011;35840;45.982;8.890;2022-07-23T15:10:35;11.38;;;6.43;;
49948;SDS011;35840;45.982;8.890;2022-07-23T15:13:03;10.43;;;6.90;;
49948;SDS011;35840;45.982;8.890;2022-07-23T15:15:30;8.93;;;6.50;;
49948;SDS011;35840;45.982;8.890;2022-07-23T15:17:57;8.45;;;6.30;;
49948;SDS011;35840;45.982;8.890;2022-07-23T15:20:23;7.07;;;6.35;;
49948;SDS011;35840;45.982;8.890;2022-07-23T15:23:10;7.60;;;6.90;;
49948;SDS011;35840;45.982;8.890;2022-07-23T15:25:38;10.70;;;7.18;;
49948;SDS011;35840;45.982;8.890;2022-07-23T15:28:05;13.35;;;7.75;;
49948;SDS011;35840;45.982;8.890;2022-07-23T15:30:34;7.95;;;6.72;;
49948;SDS011;35840;45.982;8.890;2022-07-23T15:33:03;9.63;;;7.57;;
49948;SDS011;35840;45.982;8.890;2022-07-23T15:35:30;8.65;;;7.57;;
49948;SDS011;35840;45.982;8.890;2022-07-23T15:37:57;11.48;;;7.65;;
49948;SDS011;35840;45.982;8.890;2022-07-23T15:40:24;8.70;;;6.53;;
49948;SDS011;35840;45.982;8.890;2022-07-23T15:42:52;8.07;;;7.22;;
49948;SDS011;35840;45.982;8.890;2022-07-23T15:45:18;10.18;;;7.57;;
49948;SDS011;35840;45.982;8.890;2022-07-23T15:47:46;7.60;;;6.47;;
49948;SDS011;35840;45.982;8.890;2022-07-23T15:50:14;7.28;;;6.43;;
49948;SDS011;35840;45.982;8.890;2022-07-23T15:52:41;8.88;;;6.97;;